END weather

Las Encantadas Airstrip
Ensenada, Baja California, Mexico

Public forecast

Using degrees Celsius for public forecast. Weather courtesy of forecast.io.

METAR (pilot weather report)

Closest report is (Old) Puerto PeƱasco Airport, 99.5 nm (184.4 km) NNE. Retrieved UTC (0 seconds ago):

TAF (pilot weather forecast)

Closest forecast is General Ignacio P. Garcia International Airport, 185.3 nm (343.1 km) ESE. Retrieved 2019/05/19 06:45 UTC (5 hours ago):

TAF MMHO 190443Z 1906/2006 22005KT P6SM SKC FM191900 24010KT P6SM SKC FM200300 24005KT P6SM SKC